<?xml version="1.0" encoding="UTF-8" standalone="no" ?>
<gpx xmlns="http://www.topografix.com/GPX/1/1" xmlns:xsi="http://www.w3.org/2001/XMLSchema-instance" xsi:schemaLocation="http://www.topografix.com/GPX/1/1 http://www.topografix.com/GPX/1/1/gpx.xsd" version="1.1" creator="VisuGPX - https://www.visugpx.com">
  <metadata>
    <name>Turquie_100points</name>
  </metadata>
  <trk>
    <name><![CDATA[Tour d'Europe: étape 520]]></name>
    <extensions>
      <line xmlns="http://www.topografix.com/GPX/gpx_style/0/2">
        <color>00FF00</color>
        <width>4</width>
      </line>
    </extensions>
    <trkseg>
      <trkpt lat="41.39679" lon="41.42218">
        <ele>50.097405</ele>
        <time>2021-11-30T05:26:21.747Z</time>
      </trkpt>
      <trkpt lat="41.39596" lon="41.42097">
        <ele>50.805769</ele>
        <time>2021-11-30T05:29:14.143Z</time>
      </trkpt>
      <trkpt lat="41.39416" lon="41.4193">
        <ele>54.709399</ele>
        <time>2021-11-30T05:30:10.164Z</time>
      </trkpt>
      <trkpt lat="41.39264" lon="41.41925">
        <ele>56.900948</ele>
        <time>2021-11-30T05:31:14.186Z</time>
      </trkpt>
      <trkpt lat="41.3922" lon="41.42179">
        <ele>52.91834</ele>
        <time>2021-11-30T05:32:18.145Z</time>
      </trkpt>
      <trkpt lat="41.39144" lon="41.42416">
        <ele>45.477633</ele>
        <time>2021-11-30T05:33:17.180Z</time>
      </trkpt>
      <trkpt lat="41.39106" lon="41.42695">
        <ele>44.859482</ele>
        <time>2021-11-30T05:34:23.158Z</time>
      </trkpt>
      <trkpt lat="41.39045" lon="41.42949">
        <ele>43.242931</ele>
        <time>2021-11-30T05:35:34.135Z</time>
      </trkpt>
      <trkpt lat="41.38964" lon="41.43185">
        <ele>48.986728</ele>
        <time>2021-11-30T05:36:46.159Z</time>
      </trkpt>
      <trkpt lat="41.38941" lon="41.43404">
        <ele>56.051288</ele>
        <time>2021-11-30T05:38:16.155Z</time>
      </trkpt>
      <trkpt lat="41.38847" lon="41.43607">
        <ele>58.555673</ele>
        <time>2021-11-30T05:39:51.156Z</time>
      </trkpt>
      <trkpt lat="41.38804" lon="41.43875">
        <ele>57.095128</ele>
        <time>2021-11-30T05:40:57.160Z</time>
      </trkpt>
      <trkpt lat="41.38802" lon="41.44127">
        <ele>55.539745</ele>
        <time>2021-11-30T05:41:53.164Z</time>
      </trkpt>
      <trkpt lat="41.38826" lon="41.44397">
        <ele>56.916033</ele>
        <time>2021-11-30T05:42:58.140Z</time>
      </trkpt>
      <trkpt lat="41.38927" lon="41.44622">
        <ele>65.816214</ele>
        <time>2021-11-30T05:44:24.142Z</time>
      </trkpt>
      <trkpt lat="41.3892" lon="41.44844">
        <ele>71.956713</ele>
        <time>2021-11-30T05:45:53.149Z</time>
      </trkpt>
      <trkpt lat="41.38934" lon="41.45003">
        <ele>69.937925</ele>
        <time>2021-11-30T05:46:56.154Z</time>
      </trkpt>
      <trkpt lat="41.38914" lon="41.4517">
        <ele>74.465907</ele>
        <time>2021-11-30T05:48:03.142Z</time>
      </trkpt>
      <trkpt lat="41.38903" lon="41.45431">
        <ele>82.069131</ele>
        <time>2021-11-30T05:49:28.152Z</time>
      </trkpt>
      <trkpt lat="41.3893" lon="41.45718">
        <ele>90.633171</ele>
        <time>2021-11-30T05:50:35.158Z</time>
      </trkpt>
      <trkpt lat="41.3898" lon="41.45936">
        <ele>86.628372</ele>
        <time>2021-11-30T05:51:34.141Z</time>
      </trkpt>
      <trkpt lat="41.38979" lon="41.46114">
        <ele>98.02729</ele>
        <time>2021-11-30T05:53:29.150Z</time>
      </trkpt>
      <trkpt lat="41.39029" lon="41.46349">
        <ele>101.934861</ele>
        <time>2021-11-30T05:54:49.152Z</time>
      </trkpt>
      <trkpt lat="41.39124" lon="41.46603">
        <ele>98.79818</ele>
        <time>2021-11-30T05:55:49.144Z</time>
      </trkpt>
      <trkpt lat="41.39092" lon="41.4685">
        <ele>99.032427</ele>
        <time>2021-11-30T05:57:00.162Z</time>
      </trkpt>
      <trkpt lat="41.3906" lon="41.47112">
        <ele>93.739787</ele>
        <time>2021-11-30T05:58:08.150Z</time>
      </trkpt>
      <trkpt lat="41.38977" lon="41.47301">
        <ele>90.517025</ele>
        <time>2021-11-30T05:59:08.167Z</time>
      </trkpt>
      <trkpt lat="41.38984" lon="41.47559">
        <ele>91.391855</ele>
        <time>2021-11-30T06:00:09.145Z</time>
      </trkpt>
      <trkpt lat="41.38926" lon="41.47829">
        <ele>98.936092</ele>
        <time>2021-11-30T06:01:21.171Z</time>
      </trkpt>
      <trkpt lat="41.38912" lon="41.48076">
        <ele>114.176284</ele>
        <time>2021-11-30T06:03:00.159Z</time>
      </trkpt>
      <trkpt lat="41.38874" lon="41.48333">
        <ele>120.476743</ele>
        <time>2021-11-30T06:04:50.146Z</time>
      </trkpt>
      <trkpt lat="41.38834" lon="41.48592">
        <ele>125.535152</ele>
        <time>2021-11-30T06:06:40.216Z</time>
      </trkpt>
      <trkpt lat="41.3877" lon="41.48823">
        <ele>137.471773</ele>
        <time>2021-11-30T06:08:41.175Z</time>
      </trkpt>
      <trkpt lat="41.3834" lon="41.50027">
        <ele>194.095188</ele>
        <time>2021-11-30T06:18:45.184Z</time>
      </trkpt>
      <trkpt lat="41.38378" lon="41.56966">
        <ele>429.837801</ele>
        <time>2021-11-30T07:10:21.007Z</time>
      </trkpt>
      <trkpt lat="41.38231" lon="41.57215">
        <ele>415.961705</ele>
        <time>2021-11-30T07:18:22.009Z</time>
      </trkpt>
      <trkpt lat="41.38247" lon="41.57514">
        <ele>406.712857</ele>
        <time>2021-11-30T07:19:02.020Z</time>
      </trkpt>
      <trkpt lat="41.3814" lon="41.57757">
        <ele>393.087096</ele>
        <time>2021-11-30T07:19:40.019Z</time>
      </trkpt>
      <trkpt lat="41.38055" lon="41.58072">
        <ele>371.241407</ele>
        <time>2021-11-30T07:20:20.000Z</time>
      </trkpt>
      <trkpt lat="41.38077" lon="41.5838">
        <ele>357.997301</ele>
        <time>2021-11-30T07:20:58.049Z</time>
      </trkpt>
      <trkpt lat="41.38063" lon="41.58707">
        <ele>347.867486</ele>
        <time>2021-11-30T07:21:38.021Z</time>
      </trkpt>
      <trkpt lat="41.38105" lon="41.59019">
        <ele>337.358322</ele>
        <time>2021-11-30T07:22:18.009Z</time>
      </trkpt>
      <trkpt lat="41.38009" lon="41.59268">
        <ele>321.150439</ele>
        <time>2021-11-30T07:22:56.020Z</time>
      </trkpt>
      <trkpt lat="41.38104" lon="41.59488">
        <ele>312.409043</ele>
        <time>2021-11-30T07:23:37.021Z</time>
      </trkpt>
      <trkpt lat="41.38056" lon="41.59794">
        <ele>299.642665</ele>
        <time>2021-11-30T07:24:15.027Z</time>
      </trkpt>
      <trkpt lat="41.37943" lon="41.60094">
        <ele>282.977801</ele>
        <time>2021-11-30T07:24:55.017Z</time>
      </trkpt>
      <trkpt lat="41.37874" lon="41.60395">
        <ele>280.216828</ele>
        <time>2021-11-30T07:25:35.011Z</time>
      </trkpt>
      <trkpt lat="41.37975" lon="41.60647">
        <ele>283.251076</ele>
        <time>2021-11-30T07:26:13.012Z</time>
      </trkpt>
      <trkpt lat="41.3801" lon="41.60947">
        <ele>280.353583</ele>
        <time>2021-11-30T07:26:54.023Z</time>
      </trkpt>
      <trkpt lat="41.38035" lon="41.61218">
        <ele>273.034835</ele>
        <time>2021-11-30T07:27:32.030Z</time>
      </trkpt>
      <trkpt lat="41.38085" lon="41.61579">
        <ele>261.600703</ele>
        <time>2021-11-30T07:28:12.006Z</time>
      </trkpt>
      <trkpt lat="41.37941" lon="41.61842">
        <ele>248.530927</ele>
        <time>2021-11-30T07:28:50.019Z</time>
      </trkpt>
      <trkpt lat="41.37725" lon="41.61954">
        <ele>239.254017</ele>
        <time>2021-11-30T07:29:28.017Z</time>
      </trkpt>
      <trkpt lat="41.37612" lon="41.62241">
        <ele>229.656154</ele>
        <time>2021-11-30T07:30:08.029Z</time>
      </trkpt>
      <trkpt lat="41.37436" lon="41.62437">
        <ele>222.813414</ele>
        <time>2021-11-30T07:30:46.023Z</time>
      </trkpt>
      <trkpt lat="41.37374" lon="41.62691">
        <ele>221.191351</ele>
        <time>2021-11-30T07:31:33.020Z</time>
      </trkpt>
      <trkpt lat="41.37457" lon="41.62953">
        <ele>219.149706</ele>
        <time>2021-11-30T07:32:18.011Z</time>
      </trkpt>
      <trkpt lat="41.3729" lon="41.63086">
        <ele>215.914328</ele>
        <time>2021-11-30T07:33:04.999Z</time>
      </trkpt>
      <trkpt lat="41.37071" lon="41.63195">
        <ele>210.045776</ele>
        <time>2021-11-30T07:33:46.009Z</time>
      </trkpt>
      <trkpt lat="41.37026" lon="41.63443">
        <ele>204.588867</ele>
        <time>2021-11-30T07:34:43.018Z</time>
      </trkpt>
      <trkpt lat="41.36876" lon="41.63651">
        <ele>208.997671</ele>
        <time>2021-11-30T07:35:43.011Z</time>
      </trkpt>
      <trkpt lat="41.369" lon="41.6393">
        <ele>213.225272</ele>
        <time>2021-11-30T07:36:38.020Z</time>
      </trkpt>
      <trkpt lat="41.36849" lon="41.64222">
        <ele>207.684034</ele>
        <time>2021-11-30T07:37:16.062Z</time>
      </trkpt>
      <trkpt lat="41.36775" lon="41.6453">
        <ele>194.712778</ele>
        <time>2021-11-30T07:37:56.052Z</time>
      </trkpt>
      <trkpt lat="41.36829" lon="41.64808">
        <ele>186.136178</ele>
        <time>2021-11-30T07:38:36.029Z</time>
      </trkpt>
      <trkpt lat="41.36797" lon="41.65047">
        <ele>184.685788</ele>
        <time>2021-11-30T07:39:25.043Z</time>
      </trkpt>
      <trkpt lat="41.36939" lon="41.65245">
        <ele>168.07634</ele>
        <time>2021-11-30T07:40:05.009Z</time>
      </trkpt>
      <trkpt lat="41.37038" lon="41.65518">
        <ele>164.475622</ele>
        <time>2021-11-30T07:40:43.039Z</time>
      </trkpt>
      <trkpt lat="41.36842" lon="41.65566">
        <ele>167.462024</ele>
        <time>2021-11-30T07:41:39.036Z</time>
      </trkpt>
      <trkpt lat="41.36752" lon="41.65836">
        <ele>155.725413</ele>
        <time>2021-11-30T07:42:18.010Z</time>
      </trkpt>
      <trkpt lat="41.36639" lon="41.6611">
        <ele>152.967098</ele>
        <time>2021-11-30T07:43:01.015Z</time>
      </trkpt>
      <trkpt lat="41.36646" lon="41.66358">
        <ele>150.855429</ele>
        <time>2021-11-30T07:43:39.018Z</time>
      </trkpt>
      <trkpt lat="41.36492" lon="41.66546">
        <ele>145.77739</ele>
        <time>2021-11-30T07:44:19.007Z</time>
      </trkpt>
      <trkpt lat="41.36341" lon="41.66736">
        <ele>140.53518</ele>
        <time>2021-11-30T07:45:00.008Z</time>
      </trkpt>
      <trkpt lat="41.36498" lon="41.66915">
        <ele>142.328795</ele>
        <time>2021-11-30T07:45:41.058Z</time>
      </trkpt>
      <trkpt lat="41.3654" lon="41.67205">
        <ele>145.766072</ele>
        <time>2021-11-30T07:46:32.052Z</time>
      </trkpt>
      <trkpt lat="41.36507" lon="41.67459">
        <ele>140.445251</ele>
        <time>2021-11-30T07:47:22.047Z</time>
      </trkpt>
      <trkpt lat="41.36335" lon="41.67485">
        <ele>139.858222</ele>
        <time>2021-11-30T08:08:01.090Z</time>
      </trkpt>
      <trkpt lat="41.36115" lon="41.6745">
        <ele>137.814529</ele>
        <time>2021-11-30T08:08:59.100Z</time>
      </trkpt>
      <trkpt lat="41.35958" lon="41.67618">
        <ele>140.521895</ele>
        <time>2021-11-30T08:09:55.083Z</time>
      </trkpt>
      <trkpt lat="41.35745" lon="41.67628">
        <ele>133.513019</ele>
        <time>2021-11-30T08:10:56.080Z</time>
      </trkpt>
      <trkpt lat="41.35556" lon="41.67728">
        <ele>135.439344</ele>
        <time>2021-11-30T08:11:55.078Z</time>
      </trkpt>
      <trkpt lat="41.35329" lon="41.6766">
        <ele>139.825779</ele>
        <time>2021-11-30T08:12:51.089Z</time>
      </trkpt>
      <trkpt lat="41.35198" lon="41.67845">
        <ele>144.321749</ele>
        <time>2021-11-30T08:13:48.109Z</time>
      </trkpt>
      <trkpt lat="41.35217" lon="41.68088">
        <ele>152.723275</ele>
        <time>2021-11-30T08:15:17.101Z</time>
      </trkpt>
      <trkpt lat="41.35257" lon="41.68351">
        <ele>167.232712</ele>
        <time>2021-11-30T08:20:14.099Z</time>
      </trkpt>
      <trkpt lat="41.35311" lon="41.68183">
        <ele>176.259777</ele>
        <time>2021-11-30T08:21:55.094Z</time>
      </trkpt>
      <trkpt lat="41.35388" lon="41.68192">
        <ele>190.342536</ele>
        <time>2021-11-30T08:24:00.096Z</time>
      </trkpt>
      <trkpt lat="41.35309" lon="41.68427">
        <ele>207.425515</ele>
        <time>2021-11-30T08:26:03.126Z</time>
      </trkpt>
      <trkpt lat="41.35271" lon="41.68659">
        <ele>222.153194</ele>
        <time>2021-11-30T08:27:56.111Z</time>
      </trkpt>
      <trkpt lat="41.35206" lon="41.68905">
        <ele>235.842106</ele>
        <time>2021-11-30T08:29:59.110Z</time>
      </trkpt>
      <trkpt lat="41.35131" lon="41.69112">
        <ele>244.763558</ele>
        <time>2021-11-30T08:31:54.099Z</time>
      </trkpt>
      <trkpt lat="41.34962" lon="41.69203">
        <ele>249.77389</ele>
        <time>2021-11-30T08:33:51.139Z</time>
      </trkpt>
      <trkpt lat="41.34779" lon="41.69267">
        <ele>258.411497</ele>
        <time>2021-11-30T08:35:50.163Z</time>
      </trkpt>
      <trkpt lat="41.34601" lon="41.69392">
        <ele>256.40426</ele>
        <time>2021-11-30T08:37:09.095Z</time>
      </trkpt>
      <trkpt lat="41.3437" lon="41.69323">
        <ele>248.177032</ele>
        <time>2021-11-30T08:37:46.113Z</time>
      </trkpt>
      <trkpt lat="41.34257" lon="41.69479">
        <ele>250.051559</ele>
        <time>2021-11-30T08:38:39.101Z</time>
      </trkpt>
      <trkpt lat="41.3421" lon="41.69735">
        <ele>255.58576</ele>
        <time>2021-11-30T08:40:09.099Z</time>
      </trkpt>
      <trkpt lat="41.34133" lon="41.69902">
        <ele>260.063801</ele>
        <time>2021-11-30T08:41:16.088Z</time>
      </trkpt>
      <trkpt lat="41.33978" lon="41.70085">
        <ele>253.071144</ele>
        <time>2021-11-30T08:42:07.117Z</time>
      </trkpt>
      <trkpt lat="41.33847" lon="41.70293">
        <ele>252.841256</ele>
        <time>2021-11-30T08:43:06.103Z</time>
      </trkpt>
      <trkpt lat="41.33705" lon="41.70437">
        <ele>257.083182</ele>
        <time>2021-11-30T08:44:19.131Z</time>
      </trkpt>
      <trkpt lat="41.33535" lon="41.70548">
        <ele>261.374527</ele>
        <time>2021-11-30T08:45:38.137Z</time>
      </trkpt>
      <trkpt lat="41.33269" lon="41.70636">
        <ele>248.676598</ele>
        <time>2021-11-30T08:46:18.103Z</time>
      </trkpt>
      <trkpt lat="41.33109" lon="41.70762">
        <ele>243.899841</ele>
        <time>2021-11-30T08:47:30.121Z</time>
      </trkpt>
      <trkpt lat="41.3301" lon="41.7102">
        <ele>250.388954</ele>
        <time>2021-11-30T08:48:30.124Z</time>
      </trkpt>
      <trkpt lat="41.33003" lon="41.713">
        <ele>261.337207</ele>
        <time>2021-11-30T08:49:25.138Z</time>
      </trkpt>
      <trkpt lat="41.3297" lon="41.71631">
        <ele>261.861264</ele>
        <time>2021-11-30T08:50:00.137Z</time>
      </trkpt>
      <trkpt lat="41.32871" lon="41.71868">
        <ele>267.191296</ele>
        <time>2021-11-30T08:51:12.116Z</time>
      </trkpt>
      <trkpt lat="41.32782" lon="41.72035">
        <ele>263.575561</ele>
        <time>2021-11-30T08:52:47.143Z</time>
      </trkpt>
      <trkpt lat="41.32588" lon="41.72201">
        <ele>244.733087</ele>
        <time>2021-11-30T08:53:35.109Z</time>
      </trkpt>
      <trkpt lat="41.32376" lon="41.7244">
        <ele>241.295932</ele>
        <time>2021-11-30T08:54:05.109Z</time>
      </trkpt>
      <trkpt lat="41.3236" lon="41.72787">
        <ele>249.224589</ele>
        <time>2021-11-30T08:54:46.121Z</time>
      </trkpt>
      <trkpt lat="41.32313" lon="41.72987">
        <ele>262.048166</ele>
        <time>2021-11-30T08:55:46.093Z</time>
      </trkpt>
      <trkpt lat="41.32168" lon="41.73203">
        <ele>259.347024</ele>
        <time>2021-11-30T08:56:50.146Z</time>
      </trkpt>
      <trkpt lat="41.32061" lon="41.73432">
        <ele>249.542609</ele>
        <time>2021-11-30T08:57:35.106Z</time>
      </trkpt>
      <trkpt lat="41.31883" lon="41.73361">
        <ele>239.431303</ele>
        <time>2021-11-30T08:58:40.143Z</time>
      </trkpt>
      <trkpt lat="41.31717" lon="41.73476">
        <ele>253.714145</ele>
        <time>2021-11-30T09:00:01.094Z</time>
      </trkpt>
      <trkpt lat="41.31539" lon="41.73527">
        <ele>258.035422</ele>
        <time>2021-11-30T09:01:20.109Z</time>
      </trkpt>
      <trkpt lat="41.3134" lon="41.7342">
        <ele>256.247983</ele>
        <time>2021-11-30T09:02:22.140Z</time>
      </trkpt>
      <trkpt lat="41.31077" lon="41.7327">
        <ele>250.015223</ele>
        <time>2021-11-30T09:03:02.150Z</time>
      </trkpt>
      <trkpt lat="41.30865" lon="41.73266">
        <ele>251.724003</ele>
        <time>2021-11-30T09:03:55.108Z</time>
      </trkpt>
      <trkpt lat="41.30714" lon="41.73479">
        <ele>259.816085</ele>
        <time>2021-11-30T09:04:55.120Z</time>
      </trkpt>
      <trkpt lat="41.30335" lon="41.73993">
        <ele>266.04971</ele>
        <time>2021-11-30T09:07:12.093Z</time>
      </trkpt>
      <trkpt lat="41.3012" lon="41.74111">
        <ele>253.432554</ele>
        <time>2021-11-30T09:07:56.155Z</time>
      </trkpt>
      <trkpt lat="41.30014" lon="41.74481">
        <ele>251.04345</ele>
        <time>2021-11-30T09:08:36.141Z</time>
      </trkpt>
      <trkpt lat="41.2996" lon="41.74707">
        <ele>276.578322</ele>
        <time>2021-11-30T09:09:41.116Z</time>
      </trkpt>
      <trkpt lat="41.2986" lon="41.74914">
        <ele>282.63108</ele>
        <time>2021-11-30T09:11:08.126Z</time>
      </trkpt>
      <trkpt lat="41.29753" lon="41.75123">
        <ele>282.397511</ele>
        <time>2021-11-30T09:12:21.110Z</time>
      </trkpt>
      <trkpt lat="41.29635" lon="41.75353">
        <ele>284.758894</ele>
        <time>2021-11-30T09:13:21.147Z</time>
      </trkpt>
      <trkpt lat="41.29448" lon="41.75515">
        <ele>277.154555</ele>
        <time>2021-11-30T09:14:20.113Z</time>
      </trkpt>
      <trkpt lat="41.29227" lon="41.75535">
        <ele>276.355196</ele>
        <time>2021-11-30T09:15:03.099Z</time>
      </trkpt>
      <trkpt lat="41.28987" lon="41.75492">
        <ele>255.054118</ele>
        <time>2021-11-30T09:15:32.143Z</time>
      </trkpt>
      <trkpt lat="41.28876" lon="41.75687">
        <ele>248.089659</ele>
        <time>2021-11-30T09:15:53.119Z</time>
      </trkpt>
      <trkpt lat="41.28412" lon="41.75878">
        <ele>218.109485</ele>
        <time>2021-11-30T09:16:59.116Z</time>
      </trkpt>
      <trkpt lat="41.28196" lon="41.75925">
        <ele>228.465448</ele>
        <time>2021-11-30T09:17:46.116Z</time>
      </trkpt>
      <trkpt lat="41.27509" lon="41.76227">
        <ele>222.424169</ele>
        <time>2021-11-30T09:20:15.111Z</time>
      </trkpt>
      <trkpt lat="41.27315" lon="41.76285">
        <ele>216.663449</ele>
        <time>2021-11-30T09:20:59.107Z</time>
      </trkpt>
      <trkpt lat="41.27151" lon="41.76416">
        <ele>224.498045</ele>
        <time>2021-11-30T09:21:47.093Z</time>
      </trkpt>
      <trkpt lat="41.27081" lon="41.76714">
        <ele>227.260359</ele>
        <time>2021-11-30T09:22:41.107Z</time>
      </trkpt>
      <trkpt lat="41.26935" lon="41.76964">
        <ele>227.297915</ele>
        <time>2021-11-30T09:23:36.092Z</time>
      </trkpt>
      <trkpt lat="41.26727" lon="41.77012">
        <ele>228.591275</ele>
        <time>2021-11-30T09:24:32.148Z</time>
      </trkpt>
      <trkpt lat="41.26504" lon="41.77075">
        <ele>233.20308</ele>
        <time>2021-11-30T09:25:34.128Z</time>
      </trkpt>
      <trkpt lat="41.263" lon="41.7716">
        <ele>238.296903</ele>
        <time>2021-11-30T09:26:31.110Z</time>
      </trkpt>
      <trkpt lat="41.26125" lon="41.77294">
        <ele>239.647394</ele>
        <time>2021-11-30T09:27:57.111Z</time>
      </trkpt>
      <trkpt lat="41.25931" lon="41.77382">
        <ele>243.512474</ele>
        <time>2021-11-30T09:29:24.113Z</time>
      </trkpt>
      <trkpt lat="41.25751" lon="41.773">
        <ele>260.254597</ele>
        <time>2021-11-30T09:30:48.113Z</time>
      </trkpt>
      <trkpt lat="41.25583" lon="41.77164">
        <ele>275.013229</ele>
        <time>2021-11-30T09:32:21.107Z</time>
      </trkpt>
      <trkpt lat="41.25404" lon="41.7719">
        <ele>268.199453</ele>
        <time>2021-11-30T09:33:55.105Z</time>
      </trkpt>
      <trkpt lat="41.2519" lon="41.77181">
        <ele>272.303115</ele>
        <time>2021-11-30T09:34:44.116Z</time>
      </trkpt>
      <trkpt lat="41.24955" lon="41.7722">
        <ele>264.134966</ele>
        <time>2021-11-30T09:35:24.121Z</time>
      </trkpt>
      <trkpt lat="41.24892" lon="41.77505">
        <ele>250.700493</ele>
        <time>2021-11-30T09:36:02.126Z</time>
      </trkpt>
      <trkpt lat="41.24627" lon="41.77669">
        <ele>238.784282</ele>
        <time>2021-11-30T09:36:42.107Z</time>
      </trkpt>
      <trkpt lat="41.24322" lon="41.77656">
        <ele>252.018932</ele>
        <time>2021-11-30T09:37:20.117Z</time>
      </trkpt>
      <trkpt lat="41.24067" lon="41.77801">
        <ele>249.515069</ele>
        <time>2021-11-30T09:38:00.112Z</time>
      </trkpt>
      <trkpt lat="41.23908" lon="41.78128">
        <ele>233.185673</ele>
        <time>2021-11-30T09:38:40.123Z</time>
      </trkpt>
      <trkpt lat="41.23717" lon="41.78133">
        <ele>234.014445</ele>
        <time>2021-11-30T09:39:25.109Z</time>
      </trkpt>
      <trkpt lat="41.23499" lon="41.78043">
        <ele>247.777847</ele>
        <time>2021-11-30T09:40:25.112Z</time>
      </trkpt>
      <trkpt lat="41.23339" lon="41.78218">
        <ele>233.2485</ele>
        <time>2021-11-30T09:41:23.114Z</time>
      </trkpt>
      <trkpt lat="41.23144" lon="41.78305">
        <ele>231.262186</ele>
        <time>2021-11-30T09:42:24.120Z</time>
      </trkpt>
      <trkpt lat="41.23" lon="41.78425">
        <ele>231.275679</ele>
        <time>2021-11-30T09:43:33.129Z</time>
      </trkpt>
      <trkpt lat="41.2289" lon="41.78662">
        <ele>228.292449</ele>
        <time>2021-11-30T09:44:33.102Z</time>
      </trkpt>
      <trkpt lat="41.22609" lon="41.78854">
        <ele>234.865563</ele>
        <time>2021-11-30T09:45:55.095Z</time>
      </trkpt>
      <trkpt lat="41.22412" lon="41.78991">
        <ele>236.145566</ele>
        <time>2021-11-30T09:46:52.120Z</time>
      </trkpt>
      <trkpt lat="41.22227" lon="41.79148">
        <ele>242.29281</ele>
        <time>2021-11-30T09:47:52.153Z</time>
      </trkpt>
      <trkpt lat="41.22056" lon="41.79297">
        <ele>246.871957</ele>
        <time>2021-11-30T09:49:08.115Z</time>
      </trkpt>
      <trkpt lat="41.21856" lon="41.7931">
        <ele>254.284108</ele>
        <time>2021-11-30T09:50:34.160Z</time>
      </trkpt>
      <trkpt lat="41.21663" lon="41.79374">
        <ele>258.726985</ele>
        <time>2021-11-30T09:51:59.144Z</time>
      </trkpt>
      <trkpt lat="41.21475" lon="41.7947">
        <ele>261.088108</ele>
        <time>2021-11-30T09:53:12.113Z</time>
      </trkpt>
      <trkpt lat="41.21184" lon="41.79692">
        <ele>264.913892</ele>
        <time>2021-11-30T09:54:34.119Z</time>
      </trkpt>
      <trkpt lat="41.21032" lon="41.79864">
        <ele>260.345096</ele>
        <time>2021-11-30T09:55:19.106Z</time>
      </trkpt>
      <trkpt lat="41.20884" lon="41.80042">
        <ele>258.08408</ele>
        <time>2021-11-30T09:56:01.117Z</time>
      </trkpt>
      <trkpt lat="41.20748" lon="41.80243">
        <ele>258.212937</ele>
        <time>2021-11-30T09:56:41.136Z</time>
      </trkpt>
      <trkpt lat="41.20583" lon="41.80395">
        <ele>255.563288</ele>
        <time>2021-11-30T09:57:19.127Z</time>
      </trkpt>
      <trkpt lat="41.20411" lon="41.80814">
        <ele>247.674099</ele>
        <time>2021-11-30T09:58:31.119Z</time>
      </trkpt>
      <trkpt lat="41.19791" lon="41.81939">
        <ele>256.284197</ele>
        <time>2021-11-30T10:01:47.128Z</time>
      </trkpt>
      <trkpt lat="41.19611" lon="41.82062">
        <ele>253.996417</ele>
        <time>2021-11-30T10:02:28.126Z</time>
      </trkpt>
      <trkpt lat="41.1881" lon="41.83093">
        <ele>232.051027</ele>
        <time>2021-11-30T10:06:39.110Z</time>
      </trkpt>
      <trkpt lat="41.18841" lon="41.82816">
        <ele>210.903276</ele>
        <time>2021-11-30T10:07:25.119Z</time>
      </trkpt>
      <trkpt lat="41.18829" lon="41.827">
        <ele>210.903276</ele>
        <time>2021-11-30T10:11:02.159Z</time>
      </trkpt>
    </trkseg>
  </trk>
</gpx>